Georgia Highway — 7JCV — position and weather

sailwx.info

Track history (hours):
 
Tides and Currents Weather Stations Pressure Air Temp Water Temp Dewpoint Dewpoint Depression Visibility Wind Speed Wind Dir Waves Ship Positions

Georgia Highway

Last reported at 2017-Aug-17 15:35 UTC. Time now 2017-Aug-21 10:20 UTC.
Position N 33°58' E 134°57'.

Length 200 m; draft 9.1 m.

Type: Cargo ship. MMSI: 432629000.

Date/timePositionNaut miles runAvg speedWind from/ knotsBaromVisibWave heightAir tempDewpointWater temp
2017-Aug-17 15:35N 33°58' E 134°57'115.2
2017-Aug-17 15:30N 33°60' E 134°58'815.2
2017-Aug-17 15:00N 34°07' E 134°58'612.5
2017-Aug-17 14:30N 34°13' E 134°57'715.0
2017-Aug-17 14:00N 34°21' E 134°60'917.7
2017-Aug-17 13:30N 34°28' E 135°06'917.2
2017-Aug-17 13:00N 34°34' E 135°13'611.6
2017-Aug-17 12:30N 34°39' E 135°15'2 3.5
2017-Aug-17 11:50N 34°42' E 135°14'0 0.0
2017-Aug-17 11:26N 34°42' E 135°14'0 0.0
2017-Aug-17 10:56N 34°42' E 135°14'0 0.0
2017-Aug-17 10:26N 34°42' E 135°14'0 0.0
2017-Aug-17 09:56N 34°42' E 135°14'0 0.0
2017-Aug-17 09:26N 34°42' E 135°14'0 0.0
2017-Aug-17 08:56N 34°42' E 135°14'0 0.0
2017-Aug-17 08:26N 34°42' E 135°14'0 0.0
2017-Aug-17 07:56N 34°42' E 135°14'0 0.0
2017-Aug-17 07:26N 34°42' E 135°14'0 0.0
2017-Aug-17 06:56N 34°42' E 135°14'0 0.0
2017-Aug-17 06:26N 34°42' E 135°14'0 0.0
2017-Aug-17 05:56N 34°42' E 135°14'0 0.0
2017-Aug-17 05:26N 34°42' E 135°14'0 0.0
2017-Aug-17 04:56N 34°42' E 135°14'0 0.0
2017-Aug-17 04:26N 34°42' E 135°14'0 0.0
2017-Aug-17 03:56N 34°42' E 135°14'0 0.0
2017-Aug-17 03:26N 34°42' E 135°14'0 0.0
2017-Aug-17 02:56N 34°42' E 135°14'0 0.0
2017-Aug-17 02:26N 34°42' E 135°14'0 0.0
2017-Aug-17 01:56N 34°42' E 135°14'0 0.0
2017-Aug-17 01:26N 34°42' E 135°14'0 0.0
2017-Aug-17 00:56N 34°42' E 135°14'0 0.0
2017-Aug-17 00:14N 34°42' E 135°14'0 0.0
2017-Aug-16 23:56N 34°42' E 135°14'0 0.0
2017-Aug-16 23:20N 34°42' E 135°14'0 0.0
2017-Aug-16 23:00N 34°42' E 135°14'0 1.0
2017-Aug-16 22:30N 34°41' E 135°15'3 6.6
2017-Aug-16 22:00N 34°38' E 135°16'4 7.6
2017-Aug-16 21:30N 34°35' E 135°14'5 9.9
2017-Aug-16 21:00N 34°32' E 135°09'713.4
2017-Aug-16 20:30N 34°26' E 135°06'917.3
2017-Aug-16 19:59N 34°19' E 134°60'714.8
2017-Aug-16 19:31N 34°12' E 135°00'611.2
2017-Aug-16 19:01N 34°06' E 134°59'714.3
2017-Aug-16 18:30N 33°59' E 134°59'225 4.9
2017-Aug-14 20:59N 34°53' E 139°23'816.2
2017-Aug-14 20:30N 34°58' E 139°31'816.2
2017-Aug-14 20:00N 35°03' E 139°38'816.1
2017-Aug-14 19:30N 35°09' E 139°45'611.5
2017-Aug-14 19:00N 35°14' E 139°46'612.4
2017-Aug-14 18:30N 35°20' E 139°43'612.0
2017-Aug-14 18:00N 35°25' E 139°45'4 7.3
2017-Aug-14 17:30N 35°24' E 139°49'4 7.0
2017-Aug-14 17:01N 35°22' E 139°53'0 0.3
2017-Aug-14 16:30N 35°22' E 139°54'0 0.0
2017-Aug-14 15:51N 35°22' E 139°54'0 0.0
2017-Aug-14 15:27N 35°22' E 139°54'0 0.0
2017-Aug-14 14:51N 35°22' E 139°54'0 0.0
2017-Aug-14 14:30N 35°22' E 139°54'0 0.0
2017-Aug-14 13:57N 35°22' E 139°54'0 0.0
2017-Aug-14 13:27N 35°22' E 139°54'0 0.0
2017-Aug-14 12:51N 35°22' E 139°54'0 0.0
2017-Aug-14 12:27N 35°22' E 139°54'0 0.0
2017-Aug-14 11:57N 35°22' E 139°54'0 0.0
2017-Aug-14 11:27N 35°22' E 139°54'0 0.0
2017-Aug-14 10:57N 35°22' E 139°54'0 0.0
2017-Aug-14 10:27N 35°22' E 139°54'0 0.0
2017-Aug-14 09:57N 35°22' E 139°54'0 0.0
2017-Aug-14 09:27N 35°22' E 139°54'0 0.0
2017-Aug-14 08:57N 35°22' E 139°54'0 0.0
2017-Aug-14 08:27N 35°22' E 139°54'0 0.0
2017-Aug-14 07:57N 35°22' E 139°54'0 0.0
2017-Aug-14 07:27N 35°22' E 139°54'0 0.0
2017-Aug-14 06:57N 35°22' E 139°54'0 0.0
2017-Aug-14 06:27N 35°22' E 139°54'0 0.0
2017-Aug-14 05:57N 35°22' E 139°54'0 0.0
2017-Aug-14 05:27N 35°22' E 139°54'0 0.0
2017-Aug-14 04:57N 35°22' E 139°54'0 0.0
2017-Aug-14 04:30N 35°22' E 139°54'0 0.0
2017-Aug-14 04:00N 35°22' E 139°54'0 0.0
2017-Aug-14 03:27N 35°22' E 139°54'0 0.0
2017-Aug-14 02:57N 35°22' E 139°54'0 0.0
2017-Aug-14 02:27N 35°22' E 139°54'0 0.0
2017-Aug-14 01:57N 35°22' E 139°54'0 0.0
2017-Aug-14 01:27N 35°22' E 139°54'0 0.0
2017-Aug-14 01:00N 35°22' E 139°54'0 0.0
2017-Aug-14 00:27N 35°22' E 139°54'0 0.0
2017-Aug-13 23:51N 35°22' E 139°54'0 0.0
2017-Aug-13 23:27N 35°22' E 139°54'0 0.0
2017-Aug-13 22:57N 35°22' E 139°54'0 0.0
2017-Aug-13 22:27N 35°22' E 139°54'0 0.3
2017-Aug-13 22:00N 35°22' E 139°53'3 5.8
2017-Aug-13 21:30N 35°23' E 139°50'2 4.8
2017-Aug-13 21:00N 35°25' E 139°51'0 1.0
2017-Aug-13 20:30N 35°25' E 139°51'0 0.1
2017-Aug-13 19:51N 35°25' E 139°51'0 0.0
2017-Aug-13 19:30N 35°25' E 139°51'0 0.0
2017-Aug-13 18:57N 35°25' E 139°51'0 0.0
2017-Aug-13 18:30N 35°25' E 139°51'0 0.0
2017-Aug-13 18:00N 35°25' E 139°51'0 0.0
2017-Aug-13 17:30N 35°25' E 139°51'0 0.0
2017-Aug-13 17:00N 35°25' E 139°51'0 0.0
2017-Aug-13 16:30N 35°25' E 139°51'0 0.0
2017-Aug-13 16:00N 35°25' E 139°51'0 0.0
2017-Aug-13 15:30N 35°25' E 139°51'0 0.0
2017-Aug-13 15:00N 35°25' E 139°51'0 0.0
2017-Aug-13 14:30N 35°25' E 139°51'0 0.0
2017-Aug-13 14:00N 35°25' E 139°51'0 0.0
2017-Aug-13 13:30N 35°25' E 139°51'0 0.0
2017-Aug-13 13:00N 35°25' E 139°51'0 0.0
2017-Aug-13 12:30N 35°25' E 139°51'0 0.0
2017-Aug-13 12:00N 35°25' E 139°51'0 0.0
2017-Aug-13 11:30N 35°25' E 139°51'0 0.0
2017-Aug-13 11:00N 35°25' E 139°51'0 0.0
2017-Aug-13 10:30N 35°25' E 139°51'2 3.6
2017-Aug-13 10:01N 35°25' E 139°49'510.1
2017-Aug-13 09:31N 35°26' E 139°43'2 3.8
2017-Aug-13 09:01N 35°27' E 139°41'0 0.0
2017-Aug-13 08:30N 35°27' E 139°41'0 0.0
2017-Aug-13 08:00N 35°27' E 139°41'0 0.0
2017-Aug-13 07:30N 35°27' E 139°41'0 0.0
2017-Aug-13 07:00N 35°27' E 139°41'0 0.0
2017-Aug-13 06:30N 35°27' E 139°41'0 0.0
2017-Aug-13 06:00N 35°27' E 139°41'0 0.0
2017-Aug-13 05:30N 35°27' E 139°41'0 0.0
2017-Aug-13 05:00N 35°27' E 139°41'0 0.0
2017-Aug-13 04:30N 35°27' E 139°41'0 0.0
2017-Aug-13 04:00N 35°27' E 139°41'0 0.0
2017-Aug-13 03:30N 35°27' E 139°41'0 0.0
2017-Aug-13 03:00N 35°27' E 139°41'0 0.0
2017-Aug-13 02:30N 35°27' E 139°41'0 0.0
2017-Aug-13 02:00N 35°27' E 139°41'0 0.0
2017-Aug-13 01:30N 35°27' E 139°41'0 0.0
2017-Aug-13 01:00N 35°27' E 139°41'0 0.0
2017-Aug-13 00:30N 35°27' E 139°41'0 0.0
2017-Aug-13 00:00N 35°27' E 139°41'0 0.0
2017-Aug-12 23:30N 35°27' E 139°41'0 0.0
2017-Aug-12 23:00N 35°27' E 139°41'0 0.0
2017-Aug-12 22:30N 35°27' E 139°41'0 0.1
2017-Aug-12 22:01N 35°27' E 139°41'2 4.1
2017-Aug-12 21:30N 35°26' E 139°43'4 8.7
2017-Aug-12 21:01N 35°21' E 139°43'611.4
2017-Aug-12 20:31N 35°16' E 139°46'611.6
2017-Aug-12 20:01N 35°11' E 139°47'4 8.0
2017-Aug-12 19:31N 35°07' E 139°46'612.4
2017-Aug-12 19:00N 35°02' E 139°40'714.6
2017-Aug-12 18:30N 34°55' E 139°42'816.0
2017-Aug-12 18:00N 34°48' E 139°45'816.2
2017-Aug-12 17:29N 34°40' E 139°49'  
Track history (hours):
 
Tides and Currents Weather Stations Pressure Air Temp Water Temp Dewpoint Dewpoint Depression Visibility Wind Speed Wind Dir Waves Ship Positions

Georgia Highway

Last reported at 2017-Aug-17 15:35 UTC. Time now 2017-Aug-21 10:20 UTC.
Position N 33°58' E 134°57'.

Length 200 m; draft 9.1 m.

Type: Cargo ship. MMSI: 432629000.

Date/timePositionNaut miles runAvg speedWind from/ knotsBaromVisibWave heightAir tempDewpointWater temp
2017-Aug-17 15:35N 33°58' E 134°57'115.2
2017-Aug-17 15:30N 33°60' E 134°58'815.2
2017-Aug-17 15:00N 34°07' E 134°58'612.5
2017-Aug-17 14:30N 34°13' E 134°57'715.0
2017-Aug-17 14:00N 34°21' E 134°60'917.7
2017-Aug-17 13:30N 34°28' E 135°06'917.2
2017-Aug-17 13:00N 34°34' E 135°13'611.6
2017-Aug-17 12:30N 34°39' E 135°15'2 3.5
2017-Aug-17 11:50N 34°42' E 135°14'0 0.0
2017-Aug-17 11:26N 34°42' E 135°14'0 0.0
2017-Aug-17 10:56N 34°42' E 135°14'0 0.0
2017-Aug-17 10:26N 34°42' E 135°14'0 0.0
2017-Aug-17 09:56N 34°42' E 135°14'0 0.0
2017-Aug-17 09:26N 34°42' E 135°14'0 0.0
2017-Aug-17 08:56N 34°42' E 135°14'0 0.0
2017-Aug-17 08:26N 34°42' E 135°14'0 0.0
2017-Aug-17 07:56N 34°42' E 135°14'0 0.0
2017-Aug-17 07:26N 34°42' E 135°14'0 0.0
2017-Aug-17 06:56N 34°42' E 135°14'0 0.0
2017-Aug-17 06:26N 34°42' E 135°14'0 0.0
2017-Aug-17 05:56N 34°42' E 135°14'0 0.0
2017-Aug-17 05:26N 34°42' E 135°14'0 0.0
2017-Aug-17 04:56N 34°42' E 135°14'0 0.0
2017-Aug-17 04:26N 34°42' E 135°14'0 0.0
2017-Aug-17 03:56N 34°42' E 135°14'0 0.0
2017-Aug-17 03:26N 34°42' E 135°14'0 0.0
2017-Aug-17 02:56N 34°42' E 135°14'0 0.0
2017-Aug-17 02:26N 34°42' E 135°14'0 0.0
2017-Aug-17 01:56N 34°42' E 135°14'0 0.0
2017-Aug-17 01:26N 34°42' E 135°14'0 0.0
2017-Aug-17 00:56N 34°42' E 135°14'0 0.0
2017-Aug-17 00:14N 34°42' E 135°14'0 0.0
2017-Aug-16 23:56N 34°42' E 135°14'0 0.0
2017-Aug-16 23:20N 34°42' E 135°14'0 0.0
2017-Aug-16 23:00N 34°42' E 135°14'0 1.0
2017-Aug-16 22:30N 34°41' E 135°15'3 6.6
2017-Aug-16 22:00N 34°38' E 135°16'4 7.6
2017-Aug-16 21:30N 34°35' E 135°14'5 9.9
2017-Aug-16 21:00N 34°32' E 135°09'713.4
2017-Aug-16 20:30N 34°26' E 135°06'917.3
2017-Aug-16 19:59N 34°19' E 134°60'714.8
2017-Aug-16 19:31N 34°12' E 135°00'611.2
2017-Aug-16 19:01N 34°06' E 134°59'714.3
2017-Aug-16 18:30N 33°59' E 134°59'225 4.9
2017-Aug-14 20:59N 34°53' E 139°23'816.2
2017-Aug-14 20:30N 34°58' E 139°31'816.2
2017-Aug-14 20:00N 35°03' E 139°38'816.1
2017-Aug-14 19:30N 35°09' E 139°45'611.5
2017-Aug-14 19:00N 35°14' E 139°46'612.4
2017-Aug-14 18:30N 35°20' E 139°43'612.0
2017-Aug-14 18:00N 35°25' E 139°45'4 7.3
2017-Aug-14 17:30N 35°24' E 139°49'4 7.0
2017-Aug-14 17:01N 35°22' E 139°53'0 0.3
2017-Aug-14 16:30N 35°22' E 139°54'0 0.0
2017-Aug-14 15:51N 35°22' E 139°54'0 0.0
2017-Aug-14 15:27N 35°22' E 139°54'0 0.0
2017-Aug-14 14:51N 35°22' E 139°54'0 0.0
2017-Aug-14 14:30N 35°22' E 139°54'0 0.0
2017-Aug-14 13:57N 35°22' E 139°54'0 0.0
2017-Aug-14 13:27N 35°22' E 139°54'0 0.0
2017-Aug-14 12:51N 35°22' E 139°54'0 0.0
2017-Aug-14 12:27N 35°22' E 139°54'0 0.0
2017-Aug-14 11:57N 35°22' E 139°54'0 0.0
2017-Aug-14 11:27N 35°22' E 139°54'0 0.0
2017-Aug-14 10:57N 35°22' E 139°54'0 0.0
2017-Aug-14 10:27N 35°22' E 139°54'0 0.0
2017-Aug-14 09:57N 35°22' E 139°54'0 0.0
2017-Aug-14 09:27N 35°22' E 139°54'0 0.0
2017-Aug-14 08:57N 35°22' E 139°54'0 0.0
2017-Aug-14 08:27N 35°22' E 139°54'0 0.0
2017-Aug-14 07:57N 35°22' E 139°54'0 0.0
2017-Aug-14 07:27N 35°22' E 139°54'0 0.0
2017-Aug-14 06:57N 35°22' E 139°54'0 0.0
2017-Aug-14 06:27N 35°22' E 139°54'0 0.0
2017-Aug-14 05:57N 35°22' E 139°54'0 0.0
2017-Aug-14 05:27N 35°22' E 139°54'0 0.0
2017-Aug-14 04:57N 35°22' E 139°54'0 0.0
2017-Aug-14 04:30N 35°22' E 139°54'0 0.0
2017-Aug-14 04:00N 35°22' E 139°54'0 0.0
2017-Aug-14 03:27N 35°22' E 139°54'0 0.0
2017-Aug-14 02:57N 35°22' E 139°54'0 0.0
2017-Aug-14 02:27N 35°22' E 139°54'0 0.0
2017-Aug-14 01:57N 35°22' E 139°54'0 0.0
2017-Aug-14 01:27N 35°22' E 139°54'0 0.0
2017-Aug-14 01:00N 35°22' E 139°54'0 0.0
2017-Aug-14 00:27N 35°22' E 139°54'0 0.0
2017-Aug-13 23:51N 35°22' E 139°54'0 0.0
2017-Aug-13 23:27N 35°22' E 139°54'0 0.0
2017-Aug-13 22:57N 35°22' E 139°54'0 0.0
2017-Aug-13 22:27N 35°22' E 139°54'0 0.3
2017-Aug-13 22:00N 35°22' E 139°53'3 5.8
2017-Aug-13 21:30N 35°23' E 139°50'2 4.8
2017-Aug-13 21:00N 35°25' E 139°51'0 1.0
2017-Aug-13 20:30N 35°25' E 139°51'0 0.1
2017-Aug-13 19:51N 35°25' E 139°51'0 0.0
2017-Aug-13 19:30N 35°25' E 139°51'0 0.0
2017-Aug-13 18:57N 35°25' E 139°51'0 0.0
2017-Aug-13 18:30N 35°25' E 139°51'0 0.0
2017-Aug-13 18:00N 35°25' E 139°51'0 0.0
2017-Aug-13 17:30N 35°25' E 139°51'0 0.0
2017-Aug-13 17:00N 35°25' E 139°51'0 0.0
2017-Aug-13 16:30N 35°25' E 139°51'0 0.0
2017-Aug-13 16:00N 35°25' E 139°51'0 0.0
2017-Aug-13 15:30N 35°25' E 139°51'0 0.0
2017-Aug-13 15:00N 35°25' E 139°51'0 0.0
2017-Aug-13 14:30N 35°25' E 139°51'0 0.0
2017-Aug-13 14:00N 35°25' E 139°51'0 0.0
2017-Aug-13 13:30N 35°25' E 139°51'0 0.0
2017-Aug-13 13:00N 35°25' E 139°51'0 0.0
2017-Aug-13 12:30N 35°25' E 139°51'0 0.0
2017-Aug-13 12:00N 35°25' E 139°51'0 0.0
2017-Aug-13 11:30N 35°25' E 139°51'0 0.0
2017-Aug-13 11:00N 35°25' E 139°51'0 0.0
2017-Aug-13 10:30N 35°25' E 139°51'2 3.6
2017-Aug-13 10:01N 35°25' E 139°49'510.1
2017-Aug-13 09:31N 35°26' E 139°43'2 3.8
2017-Aug-13 09:01N 35°27' E 139°41'0 0.0
2017-Aug-13 08:30N 35°27' E 139°41'0 0.0
2017-Aug-13 08:00N 35°27' E 139°41'0 0.0
2017-Aug-13 07:30N 35°27' E 139°41'0 0.0
2017-Aug-13 07:00N 35°27' E 139°41'0 0.0
2017-Aug-13 06:30N 35°27' E 139°41'0 0.0
2017-Aug-13 06:00N 35°27' E 139°41'0 0.0
2017-Aug-13 05:30N 35°27' E 139°41'0 0.0
2017-Aug-13 05:00N 35°27' E 139°41'0 0.0
2017-Aug-13 04:30N 35°27' E 139°41'0 0.0
2017-Aug-13 04:00N 35°27' E 139°41'0 0.0
2017-Aug-13 03:30N 35°27' E 139°41'0 0.0
2017-Aug-13 03:00N 35°27' E 139°41'0 0.0
2017-Aug-13 02:30N 35°27' E 139°41'0 0.0
2017-Aug-13 02:00N 35°27' E 139°41'0 0.0
2017-Aug-13 01:30N 35°27' E 139°41'0 0.0
2017-Aug-13 01:00N 35°27' E 139°41'0 0.0
2017-Aug-13 00:30N 35°27' E 139°41'0 0.0
2017-Aug-13 00:00N 35°27' E 139°41'0 0.0
2017-Aug-12 23:30N 35°27' E 139°41'0 0.0
2017-Aug-12 23:00N 35°27' E 139°41'0 0.0
2017-Aug-12 22:30N 35°27' E 139°41'0 0.1
2017-Aug-12 22:01N 35°27' E 139°41'2 4.1
2017-Aug-12 21:30N 35°26' E 139°43'4 8.7
2017-Aug-12 21:01N 35°21' E 139°43'611.4
2017-Aug-12 20:31N 35°16' E 139°46'611.6
2017-Aug-12 20:01N 35°11' E 139°47'4 8.0
2017-Aug-12 19:31N 35°07' E 139°46'612.4
2017-Aug-12 19:00N 35°02' E 139°40'714.6
2017-Aug-12 18:30N 34°55' E 139°42'816.0
2017-Aug-12 18:00N 34°48' E 139°45'816.2
2017-Aug-12 17:29N 34°40' E 139°49'  

Dump ship's entire track history